Time;durP1;ratioP1;P1;durP2;ratioP2;P2;SDS_P1;SDS_P2;PMS_P1;PMS_P2;Temp;Humidity;BMP_temperature;BMP_pressure;BME280_temperature;BME280_humidity;BME280_pressure;Samples;Min_cycle;Max_cycle;Signal;HPM_P1;HPM_P2
2024/05/01 00:02:10;;;;;;;5.63;5.07;;;16.00;6.10;;;;;;603882;235;26578;-82
2024/05/01 00:04:36;;;;;;;6.30;5.90;;;16.00;4.90;;;;;;603130;237;26587;-82
2024/05/01 00:07:02;;;;;;;8.87;6.23;;;16.00;4.80;;;;;;605002;234;25495;-82
2024/05/01 00:09:28;;;;;;;5.57;5.20;;;15.90;6.60;;;;;;604446;237;26544;-82
2024/05/01 00:11:53;;;;;;;5.40;5.10;;;15.90;10.80;;;;;;604270;234;27802;-82
2024/05/01 00:14:19;;;;;;;8.43;6.27;;;15.90;13.70;;;;;;604173;235;26578;-82
2024/05/01 00:16:45;;;;;;;6.57;5.53;;;15.90;17.30;;;;;;603157;237;26571;-82
2024/05/01 00:19:12;;;;;;;5.93;5.50;;;15.90;22.30;;;;;;598536;236;1001600;-82
2024/05/01 00:21:37;;;;;;;6.00;5.70;;;15.90;28.10;;;;;;603677;236;27089;-82
2024/05/01 00:24:03;;;;;;;7.63;6.23;;;15.80;28.00;;;;;;603208;237;26653;-82
2024/05/01 00:26:29;;;;;;;6.53;6.03;;;15.80;34.40;;;;;;603690;237;27588;-82
2024/05/01 00:28:54;;;;;;;8.10;7.40;;;15.70;41.10;;;;;;603372;237;28091;-82
2024/05/01 00:31:20;;;;;;;5.60;5.30;;;15.70;50.70;;;;;;602479;237;26556;-82
2024/05/01 00:33:46;;;;;;;8.07;5.83;;;15.70;60.10;;;;;;604287;236;26651;-82
2024/05/01 00:36:12;;;;;;;8.03;6.40;;;15.70;59.60;;;;;;603565;237;26548;-82
2024/05/01 00:38:38;;;;;;;6.43;6.03;;;15.60;65.60;;;;;;603463;236;26690;-82
2024/05/01 00:41:04;;;;;;;6.23;5.67;;;15.70;65.90;;;;;;603555;236;28085;-83
2024/05/01 00:43:30;;;;;;;7.60;7.00;;;15.60;65.80;;;;;;604021;237;26742;-83
2024/05/01 00:45:56;;;;;;;6.33;5.93;;;15.70;65.80;;;;;;603218;237;25491;-83
2024/05/01 00:48:21;;;;;;;7.37;6.80;;;15.80;65.90;;;;;;603966;236;27560;-83
2024/05/01 00:50:47;;;;;;;7.40;6.87;;;15.80;65.90;;;;;;605056;233;26546;-83
2024/05/01 00:53:13;;;;;;;7.73;7.13;;;15.80;66.00;;;;;;606994;235;26542;-82
2024/05/01 00:55:39;;;;;;;6.17;5.67;;;15.70;65.90;;;;;;605854;236;27110;-83
2024/05/01 00:58:05;;;;;;;7.50;6.87;;;15.60;65.80;;;;;;606004;235;26588;-83
2024/05/01 01:00:31;;;;;;;7.77;7.17;;;15.50;65.60;;;;;;605939;237;26597;-82
2024/05/01 01:02:57;;;;;;;9.10;7.30;;;15.40;65.60;;;;;;604637;236;25502;-83
2024/05/01 01:05:22;;;;;;;11.80;7.60;;;15.40;65.80;;;;;;604572;235;27100;-83
2024/05/01 01:07:48;;;;;;;7.40;6.90;;;15.40;67.60;;;;;;605114;237;25486;-82
2024/05/01 01:10:14;;;;;;;13.13;7.50;;;15.40;82.40;;;;;;603492;235;25521;-83
2024/05/01 01:12:40;;;;;;;10.17;7.20;;;15.30;88.20;;;;;;604558;237;27166;-83
2024/05/01 01:15:07;;;;;;;7.33;6.83;;;15.30;94.20;;;;;;604828;235;26040;-83
2024/05/01 01:17:32;;;;;;;7.83;7.10;;;15.20;99.90;;;;;;604652;236;25671;-82
2024/05/01 01:19:58;;;;;;;8.80;8.20;;;15.20;99.90;;;;;;599911;237;1001686;-83
2024/05/01 01:22:29;;;;;;;8.83;7.63;;;15.10;99.90;;;;;;604170;237;26564;-82
2024/05/01 01:24:55;;;;;;;13.00;7.70;;;15.10;99.90;;;;;;605950;236;27577;-83
2024/05/01 01:27:21;;;;;;;9.50;8.07;;;15.10;99.90;;;;;;604851;237;27605;-82
2024/05/01 01:29:47;;;;;;;8.47;7.83;;;15.10;99.90;;;;;;603947;236;26576;-83
2024/05/01 01:32:13;;;;;;;9.13;7.90;;;15.10;99.90;;;;;;604138;236;26673;-82
2024/05/01 01:34:39;;;;;;;7.63;6.50;;;15.00;99.90;;;;;;603942;236;26604;-83
2024/05/01 01:37:04;;;;;;;11.17;8.00;;;15.10;99.90;;;;;;603350;237;27171;-83
2024/05/01 01:39:30;;;;;;;8.73;7.93;;;15.10;99.90;;;;;;603536;237;27099;-82
2024/05/01 01:41:57;;;;;;;12.53;7.20;;;15.10;99.90;;;;;;603564;236;25491;-83
2024/05/01 01:44:22;;;;;;;7.63;7.13;;;15.10;99.90;;;;;;603641;237;26594;-83
2024/05/01 01:46:48;;;;;;;8.13;7.37;;;15.10;99.90;;;;;;603420;237;26567;-83
2024/05/01 01:49:14;;;;;;;9.43;7.37;;;15.10;99.90;;;;;;603278;236;26548;-82
2024/05/01 01:51:40;;;;;;;21.57;8.87;;;15.10;99.90;;;;;;604128;236;26525;-82
2024/05/01 01:54:06;;;;;;;7.73;7.27;;;15.10;99.90;;;;;;603930;236;26555;-82
2024/05/01 01:56:31;;;;;;;18.63;7.20;;;15.10;99.90;;;;;;604431;236;26552;-82
2024/05/01 01:58:57;;;;;;;10.30;9.40;;;15.20;99.90;;;;;;602436;237;25531;-82
2024/05/01 02:01:23;;;;;;;9.80;8.90;;;15.20;99.90;;;;;;604460;232;26812;-82
2024/05/01 02:03:50;;;;;;;8.77;7.97;;;15.30;99.90;;;;;;606051;235;26622;-83
2024/05/01 02:06:15;;;;;;;10.10;9.27;;;15.30;99.90;;;;;;606108;236;27108;-82
2024/05/01 02:08:41;;;;;;;9.07;8.27;;;15.30;99.90;;;;;;607348;236;26543;-83
2024/05/01 02:11:06;;;;;;;9.27;8.37;;;15.20;99.90;;;;;;606172;235;26553;-82
2024/05/01 02:13:32;;;;;;;7.43;6.87;;;15.10;99.90;;;;;;604524;235;26542;-82
2024/05/01 02:15:58;;;;;;;7.00;6.50;;;15.10;99.90;;;;;;603884;237;26540;-83
2024/05/01 02:18:24;;;;;;;8.30;7.60;;;15.00;99.90;;;;;;600257;236;1001658;-82
2024/05/01 02:20:50;;;;;;;7.40;6.90;;;15.00;99.90;;;;;;603868;236;26540;-82
2024/05/01 02:23:16;;;;;;;8.93;8.10;;;14.90;99.90;;;;;;604021;236;26041;-83
2024/05/01 02:25:41;;;;;;;7.80;7.20;;;14.80;99.90;;;;;;604679;236;25502;-82
2024/05/01 02:28:08;;;;;;;8.93;8.27;;;14.80;99.90;;;;;;604013;235;26564;-83
2024/05/01 02:30:34;;;;;;;8.40;7.77;;;14.70;99.90;;;;;;603995;237;25514;-83
2024/05/01 02:33:00;;;;;;;9.57;8.87;;;14.80;99.90;;;;;;604628;236;27572;-82
2024/05/01 02:35:26;;;;;;;12.23;10.40;;;14.90;99.90;;;;;;605353;235;26565;-82
2024/05/01 02:37:52;;;;;;;11.87;9.47;;;14.90;99.90;;;;;;603556;237;26562;-82
2024/05/01 02:40:17;;;;;;;11.53;9.97;;;15.00;99.90;;;;;;602131;236;26552;-83
2024/05/01 02:42:44;;;;;;;12.70;9.80;;;14.80;99.90;;;;;;604597;237;28108;-83
2024/05/01 02:45:09;;;;;;;12.03;10.83;;;14.70;99.90;;;;;;603809;237;25511;-81
2024/05/01 02:47:35;;;;;;;12.60;11.33;;;14.70;99.90;;;;;;602584;237;25554;-82
2024/05/01 02:50:01;;;;;;;11.67;10.77;;;14.80;99.90;;;;;;604956;236;26603;-82
2024/05/01 02:52:26;;;;;;;13.07;11.60;;;14.70;99.90;;;;;;603356;237;25488;-82
2024/05/01 02:54:52;;;;;;;14.30;12.03;;;14.70;99.90;;;;;;603858;236;26574;-83
2024/05/01 02:57:18;;;;;;;22.37;13.10;;;14.80;99.90;;;;;;603253;237;26571;-82
2024/05/01 02:59:44;;;;;;;12.93;11.30;;;14.80;99.90;;;;;;603617;237;26607;-82
2024/05/01 03:02:10;;;;;;;13.37;12.00;;;14.90;99.90;;;;;;603597;236;26528;-82
2024/05/01 03:04:37;;;;;;;13.77;12.40;;;14.90;99.90;;;;;;603660;236;26590;-82
2024/05/01 03:07:03;;;;;;;13.90;12.50;;;14.70;99.90;;;;;;605689;236;27580;-83
2024/05/01 03:09:29;;;;;;;14.67;13.23;;;14.90;99.90;;;;;;603646;236;26527;-82
2024/05/01 03:11:54;;;;;;;15.13;12.03;;;14.80;99.90;;;;;;604686;236;28136;-83
2024/05/01 03:14:20;;;;;;;14.20;12.70;;;14.80;99.90;;;;;;605902;233;26629;-83
2024/05/01 03:16:46;;;;;;;18.93;13.97;;;14.80;99.90;;;;;;605561;235;26564;-82
2024/05/01 03:19:12;;;;;;;16.40;12.52;;;14.80;99.90;;;;;;599995;235;1001667;-82
2024/05/01 03:21:40;;;;;;;16.50;13.73;;;14.80;99.90;;;;;;606004;235;26578;-82
2024/05/01 03:24:06;;;;;;;15.70;12.63;;;14.80;99.90;;;;;;605627;236;25511;-80
2024/05/01 03:26:32;;;;;;;15.83;14.13;;;14.70;99.90;;;;;;605395;236;27657;-81
2024/05/01 03:28:57;;;;;;;14.90;12.60;;;14.70;99.90;;;;;;603524;237;27602;-80
2024/05/01 03:31:23;;;;;;;14.03;12.47;;;14.70;99.90;;;;;;604759;237;25540;-81
2024/05/01 03:33:49;;;;;;;15.40;13.40;;;14.70;99.90;;;;;;605442;235;26661;-82
2024/05/01 03:36:15;;;;;;;16.53;13.43;;;14.70;99.90;;;;;;603568;237;27303;-82
2024/05/01 03:38:41;;;;;;;19.87;14.07;;;14.60;99.90;;;;;;603864;234;25505;-81
2024/05/01 03:41:07;;;;;;;16.03;14.33;;;14.50;99.90;;;;;;604724;236;26026;-81
2024/05/01 03:43:32;;;;;;;19.30;13.40;;;14.60;99.90;;;;;;603325;236;26572;-81
2024/05/01 03:45:58;;;;;;;17.73;14.47;;;14.50;99.90;;;;;;603899;237;26561;-80
2024/05/01 03:48:24;;;;;;;14.13;12.63;;;14.50;99.90;;;;;;603349;236;27067;-80
2024/05/01 03:50:50;;;;;;;13.47;12.20;;;14.40;99.90;;;;;;603917;236;27102;-81
2024/05/01 03:53:15;;;;;;;14.60;13.23;;;14.50;99.90;;;;;;602345;237;26535;-82
2024/05/01 03:55:41;;;;;;;18.50;13.57;;;14.40;99.90;;;;;;602930;237;26573;-81
2024/05/01 03:58:07;;;;;;;14.57;13.07;;;14.40;99.90;;;;;;604097;236;25489;-81
2024/05/01 04:00:33;;;;;;;20.03;13.23;;;14.40;99.90;;;;;;602394;236;25505;-81
2024/05/01 04:02:59;;;;;;;19.93;12.57;;;14.30;99.90;;;;;;604026;237;25491;-80
2024/05/01 04:05:25;;;;;;;20.00;15.23;;;14.20;99.90;;;;;;603257;236;26623;-80
2024/05/01 04:07:51;;;;;;;31.30;12.90;;;14.10;99.90;;;;;;602508;237;28205;-80
2024/05/01 04:10:16;;;;;;;14.33;12.50;;;14.00;99.90;;;;;;602979;236;26588;-81
2024/05/01 04:12:42;;;;;;;16.00;13.63;;;14.00;99.90;;;;;;603242;237;26568;-80
2024/05/01 04:15:08;;;;;;;14.77;13.43;;;13.90;99.90;;;;;;602857;237;27232;-81
2024/05/01 04:17:34;;;;;;;20.90;15.07;;;13.90;99.90;;;;;;602616;232;26628;-81
2024/05/01 04:20:00;;;;;;;25.50;14.60;;;13.90;99.90;;;;;;598898;237;1001608;-82
2024/05/01 04:22:25;;;;;;;19.27;14.30;;;13.90;99.90;;;;;;604156;237;26671;-81
2024/05/01 04:24:52;;;;;;;16.90;14.97;;;14.00;99.90;;;;;;604117;233;26562;-80
2024/05/01 04:27:17;;;;;;;15.73;14.13;;;13.90;99.90;;;;;;606488;234;26563;-80
2024/05/01 04:29:43;;;;;;;19.30;14.73;;;13.90;99.90;;;;;;604827;236;25498;-80
2024/05/01 04:32:09;;;;;;;18.80;14.87;;;14.00;99.90;;;;;;604024;236;27190;-81
2024/05/01 04:34:35;;;;;;;22.00;16.80;;;14.00;99.90;;;;;;604178;235;27313;-81
2024/05/01 04:37:00;;;;;;;17.27;15.03;;;13.90;99.90;;;;;;604371;237;26021;-81
2024/05/01 04:39:26;;;;;;;19.53;15.50;;;13.90;99.90;;;;;;603141;235;27162;-79
2024/05/01 04:41:52;;;;;;;14.17;12.87;;;13.90;99.90;;;;;;604641;236;26631;-80
2024/05/01 04:44:18;;;;;;;17.77;15.10;;;13.90;99.90;;;;;;604206;237;26565;-80
2024/05/01 04:46:44;;;;;;;17.43;15.47;;;14.00;99.90;;;;;;603344;235;27186;-80
2024/05/01 04:49:09;;;;;;;18.97;15.93;;;13.90;99.90;;;;;;603647;237;25503;-81
2024/05/01 04:51:35;;;;;;;24.23;17.70;;;13.90;99.90;;;;;;602256;237;25496;-80
2024/05/01 04:54:01;;;;;;;22.90;15.40;;;14.00;99.90;;;;;;603613;237;25508;-81
2024/05/01 04:56:27;;;;;;;27.70;15.47;;;14.00;99.90;;;;;;605284;236;27120;-81
2024/05/01 04:58:53;;;;;;;18.80;15.97;;;14.10;99.90;;;;;;603781;236;27169;-81
2024/05/01 05:01:19;;;;;;;17.20;14.97;;;14.10;99.90;;;;;;604061;237;26598;-81
2024/05/01 05:03:45;;;;;;;18.80;15.50;;;14.20;99.90;;;;;;602726;237;28160;-82
2024/05/01 05:06:10;;;;;;;19.77;16.67;;;14.30;99.90;;;;;;602484;237;27117;-81
2024/05/01 05:08:36;;;;;;;19.37;17.30;;;14.30;99.90;;;;;;602813;236;25509;-81
2024/05/01 05:11:04;;;;;;;23.10;16.43;;;14.50;99.90;;;;;;603278;237;25611;-80
2024/05/01 05:13:28;;;;;;;24.37;17.80;;;14.50;99.90;;;;;;602419;237;26521;-80
2024/05/01 05:15:54;;;;;;;20.03;17.20;;;14.50;99.90;;;;;;603292;237;26521;-80
2024/05/01 05:18:20;;;;;;;21.20;17.53;;;14.60;99.90;;;;;;604235;237;27120;-80
2024/05/01 05:20:46;;;;;;;20.23;16.70;;;14.80;99.90;;;;;;598847;236;1001586;-81
2024/05/01 05:23:11;;;;;;;19.10;16.73;;;14.80;99.90;;;;;;602685;235;26548;-79
2024/05/01 05:25:37;;;;;;;18.87;16.50;;;14.90;99.90;;;;;;603861;237;26569;-79
2024/05/01 05:28:04;;;;;;;21.40;18.70;;;15.00;99.90;;;;;;604635;237;26560;-79
2024/05/01 05:30:29;;;;;;;22.13;18.43;;;15.10;99.90;;;;;;605290;235;26571;-79
2024/05/01 05:32:55;;;;;;;21.33;16.83;;;15.20;99.90;;;;;;605257;237;27572;-79
2024/05/01 05:35:21;;;;;;;23.07;17.47;;;15.30;99.90;;;;;;604308;235;25510;-81
2024/05/01 05:37:47;;;;;;;21.73;17.03;;;15.20;99.90;;;;;;606187;232;25485;-81
2024/05/01 05:40:13;;;;;;;29.40;19.17;;;15.30;99.90;;;;;;604609;236;26551;-81
2024/05/01 05:42:40;;;;;;;17.83;15.70;;;15.30;99.90;;;;;;603793;236;26543;-80
2024/05/01 05:45:05;;;;;;;22.07;17.20;;;15.40;99.90;;;;;;608433;234;26563;-81
2024/05/01 05:47:31;;;;;;;18.53;16.63;;;15.40;99.90;;;;;;601559;236;25577;-79
2024/05/01 05:49:57;;;;;;;17.57;15.57;;;15.50;99.90;;;;;;602988;237;28076;-79
2024/05/01 05:52:22;;;;;;;21.60;16.80;;;15.60;99.90;;;;;;604018;236;27104;-78
2024/05/01 05:54:49;;;;;;;21.23;15.80;;;15.60;99.90;;;;;;609068;235;26559;-79
2024/05/01 05:57:14;;;;;;;21.90;16.50;;;15.70;99.90;;;;;;602154;236;26619;-78
2024/05/01 05:59:40;;;;;;;21.97;16.10;;;15.90;99.90;;;;;;601884;236;27567;-78
2024/05/01 06:02:06;;;;;;;21.30;16.50;;;15.90;99.90;;;;;;599954;239;26553;-78
2024/05/01 06:04:32;;;;;;;34.83;16.93;;;16.10;99.90;;;;;;602080;237;26565;-80
2024/05/01 06:06:58;;;;;;;21.70;16.60;;;16.20;99.90;;;;;;599830;239;26544;-80
2024/05/01 06:09:23;;;;;;;24.80;16.63;;;16.20;99.90;;;;;;603045;234;27077;-81
2024/05/01 06:11:49;;;;;;;18.60;15.33;;;16.20;99.90;;;;;;603864;236;26535;-82
2024/05/01 06:14:15;;;;;;;17.90;14.80;;;16.20;99.90;;;;;;604650;235;25511;-82
2024/05/01 06:16:41;;;;;;;17.27;15.13;;;16.20;99.90;;;;;;601980;237;27150;-81
2024/05/01 06:19:07;;;;;;;17.80;15.63;;;16.20;99.90;;;;;;600078;235;1001723;-82
2024/05/01 06:21:33;;;;;;;19.57;16.67;;;16.40;99.90;;;;;;601250;237;26544;-82
2024/05/01 06:24:02;;;;;;;21.63;16.43;;;16.50;99.90;;;;;;605628;235;26637;-81
2024/05/01 06:26:25;;;;;;;18.73;16.83;;;16.70;94.20;;;;;;603144;237;27627;-82
2024/05/01 06:28:51;;;;;;;20.73;15.97;;;16.80;69.40;;;;;;603327;235;26564;-82
2024/05/01 06:31:16;;;;;;;19.83;16.47;;;16.80;67.00;;;;;;603734;237;27570;-81
2024/05/01 06:33:44;;;;;;;18.30;14.47;;;16.80;66.90;;;;;;603694;235;25500;-82
2024/05/01 06:36:08;;;;;;;16.17;14.40;;;16.80;66.90;;;;;;605392;237;26561;-81
2024/05/01 06:38:34;;;;;;;23.23;15.07;;;16.90;67.00;;;;;;604936;235;25586;-82
2024/05/01 06:41:00;;;;;;;19.80;15.50;;;17.00;67.10;;;;;;595200;239;26584;-81
2024/05/01 06:43:26;;;;;;;18.73;15.33;;;17.10;67.20;;;;;;593974;240;26641;-81
2024/05/01 06:45:52;;;;;;;15.30;13.83;;;17.20;67.50;;;;;;597406;238;27114;-82
2024/05/01 06:48:19;;;;;;;16.17;14.03;;;17.30;58.10;;;;;;598312;234;27610;-82
2024/05/01 06:50:43;;;;;;;19.60;16.00;;;17.50;35.80;;;;;;599507;238;26053;-81
2024/05/01 06:53:09;;;;;;;27.00;15.70;;;17.60;21.40;;;;;;594910;239;25524;-82
2024/05/01 06:55:35;;;;;;;17.47;14.10;;;17.70;16.40;;;;;;599780;237;26643;-81
2024/05/01 06:58:01;;;;;;;20.37;14.37;;;17.80;8.30;;;;;;596603;238;25521;-82
2024/05/01 07:00:27;;;;;;;19.30;13.43;;;17.90;1.00;;;;;;614385;233;27277;-81
2024/05/01 07:02:52;;;;;;;15.33;13.10;;;18.00;1.00;;;;;;614888;233;25490;-81
2024/05/01 07:05:18;;;;;;;15.90;14.10;;;18.10;1.00;;;;;;592800;239;26578;-81
2024/05/01 07:07:44;;;;;;;15.73;12.77;;;18.10;1.00;;;;;;604109;235;26573;-82
2024/05/01 07:10:10;;;;;;;21.13;13.40;;;18.10;1.00;;;;;;602218;236;26575;-82
2024/05/01 07:12:36;;;;;;;16.30;14.60;;;18.20;1.00;;;;;;604015;235;26562;-81
2024/05/01 07:15:02;;;;;;;17.63;13.00;;;18.20;1.00;;;;;;604514;235;25499;-82
2024/05/01 07:17:28;;;;;;;14.87;13.43;;;18.20;1.00;;;;;;600179;237;26563;-81
2024/05/01 07:19:54;;;;;;;16.30;14.60;;;18.30;1.00;;;;;;601564;235;1001642;-81
2024/05/01 07:22:20;;;;;;;26.03;14.27;;;18.40;1.00;;;;;;606145;235;26553;-82
2024/05/01 07:24:47;;;;;;;20.13;14.50;;;18.40;1.00;;;;;;605404;234;25522;-82
2024/05/01 07:27:11;;;;;;;14.80;13.20;;;18.50;1.00;;;;;;601413;237;25491;-80
2024/05/01 07:29:37;;;;;;;13.23;11.60;;;18.60;1.00;;;;;;604870;235;26545;-81
2024/05/01 07:32:04;;;;;;;12.63;11.40;;;18.80;1.00;;;;;;602159;237;26601;-80
2024/05/01 07:34:29;;;;;;;23.87;14.40;;;18.90;1.00;;;;;;603607;235;26562;-81
2024/05/01 07:36:55;;;;;;;22.40;12.70;;;19.00;1.00;;;;;;602333;237;27778;-82
2024/05/01 07:39:22;;;;;;;11.47;10.40;;;19.20;1.00;;;;;;603301;235;26545;-82
2024/05/01 07:41:47;;;;;;;12.03;10.90;;;19.20;1.00;;;;;;602000;237;27567;-82
2024/05/01 07:44:13;;;;;;;15.23;12.00;;;19.40;1.00;;;;;;604191;235;27607;-81
2024/05/01 07:46:39;;;;;;;11.80;10.50;;;19.50;1.00;;;;;;603349;233;26551;-82
2024/05/01 07:49:07;;;;;;;13.13;11.53;;;19.60;1.00;;;;;;602670;235;28115;-82
2024/05/01 07:51:31;;;;;;;12.40;11.30;;;19.60;1.00;;;;;;603964;237;27559;-81
2024/05/01 07:53:57;;;;;;;13.27;12.00;;;19.50;1.00;;;;;;604095;235;26584;-80
2024/05/01 07:56:23;;;;;;;17.93;11.20;;;19.50;1.00;;;;;;602971;236;27140;-82
2024/05/01 07:58:49;;;;;;;17.03;12.40;;;19.50;1.00;;;;;;606759;235;26803;-82
2024/05/01 08:01:15;;;;;;;12.50;11.20;;;19.40;1.00;;;;;;604699;235;25481;-81
2024/05/01 08:03:41;;;;;;;12.20;11.07;;;19.40;1.00;;;;;;607047;234;27564;-81
2024/05/01 08:06:06;;;;;;;12.13;10.87;;;19.50;1.00;;;;;;606427;235;27130;-81
2024/05/01 08:08:32;;;;;;;11.27;10.17;;;19.60;1.00;;;;;;606243;234;26532;-80
2024/05/01 08:10:58;;;;;;;13.13;11.73;;;19.60;1.00;;;;;;603281;236;26556;-82
2024/05/01 08:13:24;;;;;;;12.10;11.00;;;19.80;1.00;;;;;;605733;234;25481;-80
2024/05/01 08:15:50;;;;;;;12.07;10.93;;;20.10;1.00;;;;;;603774;236;25474;-81
2024/05/01 08:18:16;;;;;;;12.07;11.10;;;20.40;1.00;;;;;;604892;234;25503;-81
2024/05/01 08:20:42;;;;;;;14.37;12.87;;;20.50;1.00;;;;;;600504;236;1001686;-81
2024/05/01 08:23:07;;;;;;;10.77;9.77;;;20.40;1.00;;;;;;605023;234;27585;-81
2024/05/01 08:25:33;;;;;;;13.93;10.30;;;20.20;1.00;;;;;;591865;240;27662;-81
2024/05/01 08:27:59;;;;;;;13.37;11.27;;;20.20;1.00;;;;;;606504;234;27224;-80
2024/05/01 08:30:25;;;;;;;12.40;11.13;;;20.20;1.00;;;;;;603420;236;25496;-80
2024/05/01 08:32:51;;;;;;;12.60;11.30;;;20.20;1.00;;;;;;605065;234;25504;-82
2024/05/01 08:35:17;;;;;;;11.30;10.20;;;20.30;1.00;;;;;;602684;236;26554;-82
2024/05/01 08:37:43;;;;;;;12.90;11.67;;;20.50;1.00;;;;;;605051;235;27655;-82
2024/05/01 08:40:09;;;;;;;11.83;10.93;;;20.50;1.00;;;;;;602508;237;26539;-82
2024/05/01 08:42:36;;;;;;;13.90;12.50;;;20.60;1.00;;;;;;605356;235;27660;-81
2024/05/01 08:45:02;;;;;;;12.50;11.27;;;20.80;1.00;;;;;;603031;237;26523;-81
2024/05/01 08:47:28;;;;;;;15.33;12.50;;;20.90;1.00;;;;;;604099;235;26617;-81
2024/05/01 08:49:54;;;;;;;14.97;12.03;;;21.00;1.00;;;;;;603285;237;27583;-82
2024/05/01 08:52:20;;;;;;;11.63;10.57;;;21.10;1.00;;;;;;596059;240;25520;-83
2024/05/01 08:54:46;;;;;;;13.80;11.40;;;21.20;1.00;;;;;;591923;240;26582;-81
2024/05/01 08:57:12;;;;;;;15.50;12.57;;;21.30;1.00;;;;;;602152;238;26586;-81
2024/05/01 08:59:38;;;;;;;11.77;10.47;;;21.40;1.00;;;;;;602709;235;25489;-81
2024/05/01 09:02:04;;;;;;;17.03;12.70;;;21.50;1.00;;;;;;603465;236;26673;-82
2024/05/01 09:04:30;;;;;;;15.43;12.27;;;21.50;1.00;;;;;;590919;242;25738;-82
2024/05/01 09:06:56;;;;;;;17.33;10.43;;;21.60;1.00;;;;;;584989;242;25538;-81
2024/05/01 09:09:25;;;;;;;11.60;10.20;;;21.60;1.00;;;;;;600601;236;25511;-84
2024/05/01 09:11:52;;;;;;;11.80;10.80;;;21.70;1.00;;;;;;604601;234;27632;-83
2024/05/01 09:14:18;;;;;;;20.23;10.23;;;21.70;1.00;;;;;;606801;233;26557;-80
2024/05/01 09:16:44;;;;;;;11.10;10.13;;;21.90;1.00;;;;;;604817;236;27608;-82
2024/05/01 09:19:10;;;;;;;10.20;9.37;;;21.90;1.00;;;;;;607499;234;27136;-83
2024/05/01 09:21:37;;;;;;;17.27;10.67;;;22.00;1.00;;;;;;592261;238;1001630;-82
2024/05/01 09:24:06;;;;;;;11.23;10.03;;;22.00;1.00;;;;;;604941;234;25585;-81
2024/05/01 09:26:32;;;;;;;15.30;12.10;;;21.90;1.00;;;;;;605878;235;26508;-80
2024/05/01 09:28:58;;;;;;;11.73;10.57;;;21.90;1.00;;;;;;605745;234;27569;-81
2024/05/01 09:31:24;;;;;;;11.40;10.50;;;22.00;1.00;;;;;;605690;235;25493;-82
2024/05/01 09:33:52;;;;;;;15.00;11.13;;;22.00;1.00;;;;;;605780;234;26589;-83
2024/05/01 09:36:16;;;;;;;12.77;10.30;;;21.90;1.00;;;;;;603193;236;28139;-82
2024/05/01 09:38:42;;;;;;;14.50;13.00;;;21.90;1.00;;;;;;606418;234;27129;-81
2024/05/01 09:41:07;;;;;;;13.07;10.93;;;21.80;1.00;;;;;;603459;236;25480;-82
2024/05/01 09:43:34;;;;;;;12.17;9.87;;;21.80;1.00;;;;;;608199;234;26547;-81
2024/05/01 09:46:00;;;;;;;10.23;9.27;;;21.80;1.00;;;;;;597876;240;25536;-81
2024/05/01 09:48:26;;;;;;;12.87;11.07;;;22.00;1.00;;;;;;607602;234;27569;-81
2024/05/01 09:50:53;;;;;;;12.70;8.90;;;22.10;1.00;;;;;;601478;238;25500;-81
2024/05/01 09:53:19;;;;;;;10.47;9.57;;;22.30;1.00;;;;;;594768;241;25514;-81
2024/05/01 09:55:44;;;;;;;19.80;11.33;;;22.70;1.00;;;;;;605894;231;28133;-83
2024/05/01 09:58:10;;;;;;;26.80;8.50;;;22.90;1.00;;;;;;608057;236;25553;-82
2024/05/01 10:00:36;;;;;;;9.57;8.80;;;23.20;1.00;;;;;;607517;235;25494;-82
2024/05/01 10:03:02;;;;;;;10.20;9.30;;;23.30;1.00;;;;;;591644;241;25536;-82
2024/05/01 10:05:28;;;;;;;11.37;9.17;;;23.10;1.00;;;;;;604670;235;25749;-82
2024/05/01 10:07:54;;;;;;;9.30;8.47;;;23.00;1.00;;;;;;592591;240;25549;-82
2024/05/01 10:10:20;;;;;;;17.07;8.90;;;23.30;1.00;;;;;;603806;235;26011;-82
2024/05/01 10:13:06;;;;;;;9.80;8.90;;;23.60;1.00;;;;;;592798;239;25573;-81
2024/05/01 10:15:35;;;;;;;8.67;8.07;;;23.70;1.00;;;;;;597999;238;25529;-82
2024/05/01 10:18:02;;;;;;;8.87;8.27;;;23.80;1.00;;;;;;597105;239;26547;-82
2024/05/01 10:20:28;;;;;;;8.73;8.07;;;23.70;1.00;;;;;;593057;240;1001614;-81
2024/05/01 10:23:06;;;;;;;8.67;8.00;;;23.60;1.00;;;;;;587837;239;25548;-82
2024/05/01 10:25:32;;;;;;;9.83;9.03;;;23.60;1.00;;;;;;604014;237;25523;-82
2024/05/01 10:27:58;;;;;;;8.87;7.90;;;23.80;1.00;;;;;;607103;235;26501;-82
2024/05/01 10:30:24;;;;;;;9.93;8.23;;;23.90;1.00;;;;;;599334;239;27109;-82
2024/05/01 10:32:57;;;;;;;12.03;10.13;;;24.20;1.00;;;;;;598551;239;26563;-82
2024/05/01 10:35:22;;;;;;;13.70;8.10;;;24.30;1.00;;;;;;594069;241;25557;-82
2024/05/01 10:37:48;;;;;;;9.53;8.63;;;24.60;1.00;;;;;;594157;241;27070;-82
2024/05/01 10:40:14;;;;;;;9.43;8.70;;;24.60;1.00;;;;;;596882;239;25538;-82
2024/05/01 10:42:40;;;;;;;9.20;8.50;;;24.70;1.00;;;;;;597002;240;26557;-82
2024/05/01 10:45:06;;;;;;;9.73;8.93;;;24.70;1.00;;;;;;597959;237;26083;-82
2024/05/01 10:47:32;;;;;;;8.63;7.80;;;24.70;1.00;;;;;;605884;236;25497;-82
2024/05/01 10:49:58;;;;;;;9.30;8.23;;;24.80;1.00;;;;;;594314;240;27144;-81
2024/05/01 10:52:23;;;;;;;7.20;6.80;;;25.00;1.00;;;;;;599428;238;25589;-81
2024/05/01 10:54:50;;;;;;;9.03;8.10;;;25.00;1.00;;;;;;581288;244;25603;-82
2024/05/01 10:57:16;;;;;;;8.83;7.53;;;25.10;1.00;;;;;;605301;233;27010;-82
2024/05/01 10:59:42;;;;;;;7.77;7.17;;;25.20;1.00;;;;;;605417;237;25554;-82
2024/05/01 11:02:07;;;;;;;7.17;6.77;;;25.30;1.00;;;;;;604618;237;25511;-80
2024/05/01 11:04:35;;;;;;;28.73;7.30;;;25.30;1.00;;;;;;594382;241;25605;-82
2024/05/01 11:06:59;;;;;;;6.87;6.40;;;25.50;1.00;;;;;;608175;235;26105;-82
2024/05/01 11:09:25;;;;;;;6.73;6.27;;;25.60;1.00;;;;;;591946;240;25497;-82
2024/05/01 11:11:51;;;;;;;4.23;4.03;;;25.70;1.00;;;;;;607687;235;25717;-82
2024/05/01 11:14:18;;;;;;;4.73;4.50;;;25.70;1.00;;;;;;594471;240;25573;-82
2024/05/01 11:16:44;;;;;;;9.23;4.57;;;25.60;1.00;;;;;;591419;242;25526;-82
2024/05/01 11:19:10;;;;;;;3.50;3.40;;;25.80;1.00;;;;;;582471;244;28186;-82
2024/05/01 11:21:38;;;;;;;8.83;3.77;;;26.00;1.00;;;;;;599409;236;1001665;-82
2024/05/01 11:24:02;;;;;;;3.53;3.43;;;26.10;1.00;;;;;;588225;242;27621;-81
2024/05/01 11:26:28;;;;;;;4.03;3.93;;;25.90;1.00;;;;;;603347;236;25756;-81
2024/05/01 11:28:53;;;;;;;3.60;3.40;;;25.90;1.00;;;;;;587492;244;26624;-81
2024/05/01 11:31:19;;;;;;;3.73;3.63;;;26.10;1.00;;;;;;607096;235;27230;-81
2024/05/01 11:33:45;;;;;;;3.93;3.20;;;26.20;1.00;;;;;;587354;244;25618;-81
2024/05/01 11:36:13;;;;;;;4.30;3.93;;;26.30;1.00;;;;;;608145;234;25491;-81
2024/05/01 11:38:37;;;;;;;3.73;3.63;;;26.30;1.00;;;;;;590045;243;25553;-82
2024/05/01 11:41:03;;;;;;;4.27;3.80;;;26.20;1.00;;;;;;604201;235;25513;-81
2024/05/01 11:43:29;;;;;;;14.20;5.53;;;26.30;1.00;;;;;;592070;240;26551;-81
2024/05/01 11:45:55;;;;;;;7.30;4.67;;;26.50;1.00;;;;;;610215;235;28140;-81
2024/05/01 11:48:21;;;;;;;3.30;3.20;;;26.70;1.00;;;;;;592328;241;25589;-81
2024/05/01 11:50:47;;;;;;;3.83;3.67;;;26.80;1.00;;;;;;605267;237;25489;-79
2024/05/01 11:53:13;;;;;;;3.97;3.57;;;27.00;1.00;;;;;;605780;236;25493;-78
2024/05/01 11:55:38;;;;;;;3.57;3.40;;;27.00;1.00;;;;;;592328;242;25523;-78
2024/05/01 11:58:06;;;;;;;3.03;2.93;;;27.00;1.00;;;;;;590142;241;26065;-78
2024/05/01 12:00:31;;;;;;;3.87;3.77;;;26.70;1.00;;;;;;589631;242;25529;-79
2024/05/01 12:02:57;;;;;;;5.50;5.03;;;26.90;1.00;;;;;;581706;244;26599;-80
2024/05/01 12:05:23;;;;;;;3.93;3.47;;;26.90;1.00;;;;;;596530;238;25545;-79
2024/05/01 12:07:49;;;;;;;3.60;3.50;;;26.70;1.00;;;;;;583356;244;25609;-79
2024/05/01 12:10:16;;;;;;;14.93;3.40;;;26.60;1.00;;;;;;604129;236;25514;-79
2024/05/01 12:12:41;;;;;;;13.40;3.53;;;26.80;1.00;;;;;;591278;239;25518;-80
2024/05/01 12:15:07;;;;;;;5.30;4.23;;;26.90;1.00;;;;;;607636;235;26514;-78
2024/05/01 12:17:33;;;;;;;4.97;4.60;;;27.00;1.00;;;;;;594347;240;25522;-79
2024/05/01 12:19:58;;;;;;;4.63;4.20;;;27.20;1.00;;;;;;594151;238;26536;-79
2024/05/01 12:22:24;;;;;;;6.53;6.07;;;26.90;1.00;;;;;;599159;232;1001670;-79
2024/05/01 12:24:50;;;;;;;4.53;4.10;;;26.70;1.00;;;;;;591361;241;28160;-79
2024/05/01 12:27:16;;;;;;;4.20;4.10;;;26.70;1.00;;;;;;605526;236;25613;-82
2024/05/01 12:29:44;;;;;;;4.50;3.93;;;27.00;1.00;;;;;;596368;240;25511;-82
2024/05/01 12:32:22;;;;;;;4.20;3.90;;;27.10;1.00;;;;;;599780;238;25542;-82